sensor_id;sensor_type;location;lat;lon;timestamp;P1;durP1;ratioP1;P2;durP2;ratioP2
9698;SDS011;10089;47.876;8.346;2024-03-02T00:00:19;11.95;;;6.97;;
9698;SDS011;10089;47.876;8.346;2024-03-02T00:02:47;12.77;;;6.95;;
9698;SDS011;10089;47.876;8.346;2024-03-02T00:05:15;12.23;;;7.35;;
9698;SDS011;10089;47.876;8.346;2024-03-02T00:07:42;10.52;;;6.88;;
9698;SDS011;10089;47.876;8.346;2024-03-02T00:10:09;11.75;;;7.30;;
9698;SDS011;10089;47.876;8.346;2024-03-02T00:12:37;11.00;;;7.03;;
9698;SDS011;10089;47.876;8.346;2024-03-02T00:15:23;11.07;;;7.28;;
9698;SDS011;10089;47.876;8.346;2024-03-02T00:17:54;12.77;;;7.63;;
9698;SDS011;10089;47.876;8.346;2024-03-02T00:20:21;11.20;;;7.05;;
9698;SDS011;10089;47.876;8.346;2024-03-02T00:22:48;10.48;;;7.00;;
9698;SDS011;10089;47.876;8.346;2024-03-02T00:25:17;9.65;;;6.85;;
9698;SDS011;10089;47.876;8.346;2024-03-02T00:27:46;13.40;;;7.70;;
9698;SDS011;10089;47.876;8.346;2024-03-02T00:33:07;10.68;;;6.90;;
9698;SDS011;10089;47.876;8.346;2024-03-02T00:35:33;10.77;;;7.18;;
9698;SDS011;10089;47.876;8.346;2024-03-02T00:38:03;10.57;;;6.95;;
9698;SDS011;10089;47.876;8.346;2024-03-02T00:40:31;12.20;;;7.55;;
9698;SDS011;10089;47.876;8.346;2024-03-02T00:42:57;10.57;;;7.00;;
9698;SDS011;10089;47.876;8.346;2024-03-02T00:45:23;11.82;;;7.60;;
9698;SDS011;10089;47.876;8.346;2024-03-02T00:47:50;14.55;;;7.95;;
9698;SDS011;10089;47.876;8.346;2024-03-02T00:50:16;15.82;;;8.45;;
9698;SDS011;10089;47.876;8.346;2024-03-02T00:52:42;12.77;;;8.52;;
9698;SDS011;10089;47.876;8.346;2024-03-02T00:55:08;11.23;;;7.65;;
9698;SDS011;10089;47.876;8.346;2024-03-02T00:57:34;12.82;;;8.57;;
9698;SDS011;10089;47.876;8.346;2024-03-02T01:00:00;12.35;;;8.15;;
9698;SDS011;10089;47.876;8.346;2024-03-02T01:02:26;14.45;;;8.32;;
9698;SDS011;10089;47.876;8.346;2024-03-02T01:04:53;13.82;;;9.07;;
9698;SDS011;10089;47.876;8.346;2024-03-02T01:07:19;15.02;;;9.10;;
9698;SDS011;10089;47.876;8.346;2024-03-02T01:09:44;12.68;;;8.07;;
9698;SDS011;10089;47.876;8.346;2024-03-02T01:12:10;11.15;;;7.15;;
9698;SDS011;10089;47.876;8.346;2024-03-02T01:14:35;12.68;;;8.23;;
9698;SDS011;10089;47.876;8.346;2024-03-02T01:17:01;13.00;;;7.82;;
9698;SDS011;10089;47.876;8.346;2024-03-02T01:19:29;11.07;;;6.82;;
9698;SDS011;10089;47.876;8.346;2024-03-02T01:21:55;12.73;;;7.88;;
9698;SDS011;10089;47.876;8.346;2024-03-02T01:24:21;12.20;;;7.30;;
9698;SDS011;10089;47.876;8.346;2024-03-02T01:26:47;10.88;;;7.25;;
9698;SDS011;10089;47.876;8.346;2024-03-02T01:29:13;13.52;;;7.88;;
9698;SDS011;10089;47.876;8.346;2024-03-02T01:31:38;8.88;;;6.40;;
9698;SDS011;10089;47.876;8.346;2024-03-02T01:34:07;9.88;;;6.22;;
9698;SDS011;10089;47.876;8.346;2024-03-02T01:36:33;9.93;;;6.63;;
9698;SDS011;10089;47.876;8.346;2024-03-02T01:38:58;10.32;;;7.07;;
9698;SDS011;10089;47.876;8.346;2024-03-02T01:41:24;9.88;;;6.28;;
9698;SDS011;10089;47.876;8.346;2024-03-02T01:43:50;8.95;;;6.00;;
9698;SDS011;10089;47.876;8.346;2024-03-02T01:46:16;10.80;;;6.35;;
9698;SDS011;10089;47.876;8.346;2024-03-02T01:48:41;8.77;;;5.30;;
9698;SDS011;10089;47.876;8.346;2024-03-02T01:51:07;9.27;;;6.55;;
9698;SDS011;10089;47.876;8.346;2024-03-02T01:53:34;9.60;;;7.10;;
9698;SDS011;10089;47.876;8.346;2024-03-02T01:56:00;7.53;;;5.78;;
9698;SDS011;10089;47.876;8.346;2024-03-02T01:58:26;7.57;;;5.40;;
9698;SDS011;10089;47.876;8.346;2024-03-02T02:00:52;7.43;;;5.43;;
9698;SDS011;10089;47.876;8.346;2024-03-02T02:03:18;10.10;;;6.10;;
9698;SDS011;10089;47.876;8.346;2024-03-02T02:05:44;7.35;;;5.07;;
9698;SDS011;10089;47.876;8.346;2024-03-02T02:08:10;8.23;;;5.63;;
9698;SDS011;10089;47.876;8.346;2024-03-02T02:10:36;7.95;;;5.70;;
9698;SDS011;10089;47.876;8.346;2024-03-02T02:13:02;9.73;;;5.60;;
9698;SDS011;10089;47.876;8.346;2024-03-02T02:15:28;8.63;;;6.18;;
9698;SDS011;10089;47.876;8.346;2024-03-02T02:17:55;8.55;;;5.15;;
9698;SDS011;10089;47.876;8.346;2024-03-02T02:20:22;6.45;;;4.93;;
9698;SDS011;10089;47.876;8.346;2024-03-02T02:22:56;9.77;;;6.20;;
9698;SDS011;10089;47.876;8.346;2024-03-02T02:25:22;8.40;;;5.88;;
9698;SDS011;10089;47.876;8.346;2024-03-02T02:27:48;9.27;;;5.90;;
9698;SDS011;10089;47.876;8.346;2024-03-02T02:30:18;8.15;;;5.63;;
9698;SDS011;10089;47.876;8.346;2024-03-02T02:32:44;8.35;;;5.43;;
9698;SDS011;10089;47.876;8.346;2024-03-02T02:35:10;7.90;;;5.53;;
9698;SDS011;10089;47.876;8.346;2024-03-02T02:37:35;8.60;;;5.85;;
9698;SDS011;10089;47.876;8.346;2024-03-02T02:40:02;7.03;;;5.07;;
9698;SDS011;10089;47.876;8.346;2024-03-02T02:42:30;8.32;;;5.32;;
9698;SDS011;10089;47.876;8.346;2024-03-02T02:44:55;10.52;;;5.85;;
9698;SDS011;10089;47.876;8.346;2024-03-02T02:47:21;9.35;;;6.30;;
9698;SDS011;10089;47.876;8.346;2024-03-02T02:49:46;10.10;;;6.82;;
9698;SDS011;10089;47.876;8.346;2024-03-02T02:52:12;9.40;;;6.93;;
9698;SDS011;10089;47.876;8.346;2024-03-02T02:54:38;9.57;;;6.60;;
9698;SDS011;10089;47.876;8.346;2024-03-02T02:57:03;10.77;;;7.57;;
9698;SDS011;10089;47.876;8.346;2024-03-02T02:59:29;12.60;;;7.78;;
9698;SDS011;10089;47.876;8.346;2024-03-02T03:01:55;10.82;;;7.53;;
9698;SDS011;10089;47.876;8.346;2024-03-02T03:04:20;13.43;;;8.80;;
9698;SDS011;10089;47.876;8.346;2024-03-02T03:06:46;15.77;;;9.02;;
9698;SDS011;10089;47.876;8.346;2024-03-02T03:09:11;15.23;;;9.23;;
9698;SDS011;10089;47.876;8.346;2024-03-02T03:11:37;14.38;;;9.13;;
9698;SDS011;10089;47.876;8.346;2024-03-02T03:14:03;14.90;;;9.43;;
9698;SDS011;10089;47.876;8.346;2024-03-02T03:16:30;15.48;;;9.52;;
9698;SDS011;10089;47.876;8.346;2024-03-02T03:18:55;16.20;;;9.77;;
9698;SDS011;10089;47.876;8.346;2024-03-02T03:21:21;16.25;;;9.60;;
9698;SDS011;10089;47.876;8.346;2024-03-02T03:23:47;19.92;;;10.85;;
9698;SDS011;10089;47.876;8.346;2024-03-02T03:26:12;18.27;;;10.70;;
9698;SDS011;10089;47.876;8.346;2024-03-02T03:28:38;17.58;;;11.05;;
9698;SDS011;10089;47.876;8.346;2024-03-02T03:31:04;19.33;;;11.55;;
9698;SDS011;10089;47.876;8.346;2024-03-02T03:33:29;18.50;;;10.95;;
9698;SDS011;10089;47.876;8.346;2024-03-02T03:35:55;18.35;;;10.70;;
9698;SDS011;10089;47.876;8.346;2024-03-02T03:38:21;17.33;;;10.93;;
9698;SDS011;10089;47.876;8.346;2024-03-02T03:40:46;20.55;;;11.63;;
9698;SDS011;10089;47.876;8.346;2024-03-02T03:43:12;25.58;;;11.98;;
9698;SDS011;10089;47.876;8.346;2024-03-02T03:45:38;22.02;;;13.30;;
9698;SDS011;10089;47.876;8.346;2024-03-02T03:48:04;22.63;;;12.27;;
9698;SDS011;10089;47.876;8.346;2024-03-02T03:50:29;19.52;;;12.13;;
9698;SDS011;10089;47.876;8.346;2024-03-02T03:52:55;22.17;;;12.90;;
9698;SDS011;10089;47.876;8.346;2024-03-02T03:55:21;21.90;;;12.38;;
9698;SDS011;10089;47.876;8.346;2024-03-02T03:57:46;24.10;;;13.68;;
9698;SDS011;10089;47.876;8.346;2024-03-02T04:00:12;23.93;;;14.37;;
9698;SDS011;10089;47.876;8.346;2024-03-02T04:02:38;24.10;;;13.30;;
9698;SDS011;10089;47.876;8.346;2024-03-02T04:05:04;28.27;;;13.50;;
9698;SDS011;10089;47.876;8.346;2024-03-02T04:07:34;29.95;;;14.82;;
9698;SDS011;10089;47.876;8.346;2024-03-02T04:10:05;27.40;;;14.50;;
9698;SDS011;10089;47.876;8.346;2024-03-02T04:12:33;30.27;;;15.03;;
9698;SDS011;10089;47.876;8.346;2024-03-02T04:14:59;25.63;;;14.13;;
9698;SDS011;10089;47.876;8.346;2024-03-02T04:17:26;27.13;;;13.77;;
9698;SDS011;10089;47.876;8.346;2024-03-02T04:19:52;26.60;;;15.53;;
9698;SDS011;10089;47.876;8.346;2024-03-02T04:22:18;29.43;;;14.27;;
9698;SDS011;10089;47.876;8.346;2024-03-02T04:24:43;29.50;;;15.17;;
9698;SDS011;10089;47.876;8.346;2024-03-02T04:27:09;27.70;;;15.30;;
9698;SDS011;10089;47.876;8.346;2024-03-02T04:29:34;29.97;;;14.30;;
9698;SDS011;10089;47.876;8.346;2024-03-02T04:32:00;34.67;;;15.73;;
9698;SDS011;10089;47.876;8.346;2024-03-02T04:34:26;27.97;;;14.63;;
9698;SDS011;10089;47.876;8.346;2024-03-02T04:36:51;29.80;;;14.55;;
9698;SDS011;10089;47.876;8.346;2024-03-02T04:39:17;30.40;;;15.13;;
9698;SDS011;10089;47.876;8.346;2024-03-02T04:41:42;28.93;;;14.33;;
9698;SDS011;10089;47.876;8.346;2024-03-02T04:44:08;27.90;;;13.10;;
9698;SDS011;10089;47.876;8.346;2024-03-02T04:46:34;27.33;;;14.27;;
9698;SDS011;10089;47.876;8.346;2024-03-02T04:48:59;26.58;;;14.02;;
9698;SDS011;10089;47.876;8.346;2024-03-02T04:51:25;26.57;;;13.10;;
9698;SDS011;10089;47.876;8.346;2024-03-02T04:53:50;25.23;;;13.87;;
9698;SDS011;10089;47.876;8.346;2024-03-02T04:56:17;24.80;;;12.57;;
9698;SDS011;10089;47.876;8.346;2024-03-02T04:58:58;29.03;;;15.27;;
9698;SDS011;10089;47.876;8.346;2024-03-02T05:01:23;23.23;;;13.27;;
9698;SDS011;10089;47.876;8.346;2024-03-02T05:03:49;22.27;;;12.67;;
9698;SDS011;10089;47.876;8.346;2024-03-02T05:06:14;18.93;;;12.07;;
9698;SDS011;10089;47.876;8.346;2024-03-02T05:08:40;21.50;;;12.03;;
9698;SDS011;10089;47.876;8.346;2024-03-02T05:11:06;20.83;;;10.83;;
9698;SDS011;10089;47.876;8.346;2024-03-02T05:13:50;16.17;;;9.85;;
9698;SDS011;10089;47.876;8.346;2024-03-02T05:16:15;15.70;;;9.40;;
9698;SDS011;10089;47.876;8.346;2024-03-02T05:18:41;15.05;;;9.27;;
9698;SDS011;10089;47.876;8.346;2024-03-02T05:21:07;13.85;;;8.77;;
9698;SDS011;10089;47.876;8.346;2024-03-02T05:23:32;14.48;;;8.85;;
9698;SDS011;10089;47.876;8.346;2024-03-02T05:25:58;11.95;;;7.80;;
9698;SDS011;10089;47.876;8.346;2024-03-02T05:28:24;16.80;;;8.57;;
9698;SDS011;10089;47.876;8.346;2024-03-02T05:30:49;11.98;;;7.85;;
9698;SDS011;10089;47.876;8.346;2024-03-02T05:33:15;14.73;;;8.98;;
9698;SDS011;10089;47.876;8.346;2024-03-02T05:35:41;13.45;;;9.30;;
9698;SDS011;10089;47.876;8.346;2024-03-02T05:38:06;13.68;;;8.93;;
9698;SDS011;10089;47.876;8.346;2024-03-02T05:40:32;15.82;;;9.45;;
9698;SDS011;10089;47.876;8.346;2024-03-02T05:42:57;14.55;;;8.85;;
9698;SDS011;10089;47.876;8.346;2024-03-02T05:45:23;15.80;;;9.27;;
9698;SDS011;10089;47.876;8.346;2024-03-02T05:47:48;15.10;;;9.68;;
9698;SDS011;10089;47.876;8.346;2024-03-02T05:50:14;17.00;;;10.30;;
9698;SDS011;10089;47.876;8.346;2024-03-02T05:52:40;15.32;;;9.68;;
9698;SDS011;10089;47.876;8.346;2024-03-02T05:55:05;15.15;;;9.70;;
9698;SDS011;10089;47.876;8.346;2024-03-02T05:57:31;18.17;;;10.25;;
9698;SDS011;10089;47.876;8.346;2024-03-02T06:00:12;16.67;;;9.77;;
9698;SDS011;10089;47.876;8.346;2024-03-02T06:02:41;15.57;;;9.95;;
9698;SDS011;10089;47.876;8.346;2024-03-02T06:05:07;16.60;;;10.52;;
9698;SDS011;10089;47.876;8.346;2024-03-02T06:07:33;16.40;;;10.20;;
9698;SDS011;10089;47.876;8.346;2024-03-02T06:09:59;18.00;;;10.57;;
9698;SDS011;10089;47.876;8.346;2024-03-02T06:12:25;16.80;;;9.70;;
9698;SDS011;10089;47.876;8.346;2024-03-02T06:14:50;18.70;;;10.35;;
9698;SDS011;10089;47.876;8.346;2024-03-02T06:17:16;34.20;;;11.13;;
9698;SDS011;10089;47.876;8.346;2024-03-02T06:19:41;18.73;;;10.77;;
9698;SDS011;10089;47.876;8.346;2024-03-02T06:22:07;20.60;;;11.37;;
9698;SDS011;10089;47.876;8.346;2024-03-02T06:24:35;18.70;;;10.90;;
9698;SDS011;10089;47.876;8.346;2024-03-02T06:27:02;103.70;;;14.60;;
9698;SDS011;10089;47.876;8.346;2024-03-02T06:29:29;119.23;;;14.90;;
9698;SDS011;10089;47.876;8.346;2024-03-02T06:31:57;122.97;;;17.20;;
9698;SDS011;10089;47.876;8.346;2024-03-02T06:34:22;82.30;;;15.03;;
9698;SDS011;10089;47.876;8.346;2024-03-02T06:36:48;228.73;;;20.30;;
9698;SDS011;10089;47.876;8.346;2024-03-02T06:39:14;269.03;;;20.50;;
9698;SDS011;10089;47.876;8.346;2024-03-02T06:41:39;267.40;;;22.37;;
9698;SDS011;10089;47.876;8.346;2024-03-02T06:44:05;305.93;;;21.27;;
9698;SDS011;10089;47.876;8.346;2024-03-02T06:46:31;303.57;;;21.23;;
9698;SDS011;10089;47.876;8.346;2024-03-02T06:48:57;378.40;;;22.20;;
9698;SDS011;10089;47.876;8.346;2024-03-02T06:51:23;475.80;;;25.57;;
9698;SDS011;10089;47.876;8.346;2024-03-02T06:53:48;377.00;;;21.27;;
9698;SDS011;10089;47.876;8.346;2024-03-02T06:56:14;126.83;;;16.97;;
9698;SDS011;10089;47.876;8.346;2024-03-02T06:58:39;87.60;;;14.90;;
9698;SDS011;10089;47.876;8.346;2024-03-02T07:01:05;119.57;;;14.80;;
9698;SDS011;10089;47.876;8.346;2024-03-02T07:03:31;191.07;;;16.10;;
9698;SDS011;10089;47.876;8.346;2024-03-02T07:05:57;283.50;;;18.90;;
9698;SDS011;10089;47.876;8.346;2024-03-02T07:08:23;307.10;;;19.73;;
9698;SDS011;10089;47.876;8.346;2024-03-02T07:10:52;164.53;;;17.07;;
9698;SDS011;10089;47.876;8.346;2024-03-02T07:13:18;286.87;;;20.33;;
9698;SDS011;10089;47.876;8.346;2024-03-02T07:15:44;243.47;;;19.70;;
9698;SDS011;10089;47.876;8.346;2024-03-02T07:18:32;188.03;;;17.17;;
9698;SDS011;10089;47.876;8.346;2024-03-02T07:21:06;254.70;;;17.93;;
9698;SDS011;10089;47.876;8.346;2024-03-02T07:23:32;75.60;;;15.00;;
9698;SDS011;10089;47.876;8.346;2024-03-02T07:25:59;73.57;;;14.37;;
9698;SDS011;10089;47.876;8.346;2024-03-02T07:28:26;173.20;;;16.13;;
9698;SDS011;10089;47.876;8.346;2024-03-02T07:31:02;170.27;;;16.97;;
9698;SDS011;10089;47.876;8.346;2024-03-02T07:33:32;59.67;;;14.27;;
9698;SDS011;10089;47.876;8.346;2024-03-02T07:35:58;54.77;;;14.10;;
9698;SDS011;10089;47.876;8.346;2024-03-02T07:38:26;63.43;;;15.63;;
9698;SDS011;10089;47.876;8.346;2024-03-02T07:40:52;57.70;;;14.77;;
9698;SDS011;10089;47.876;8.346;2024-03-02T07:43:19;52.13;;;15.25;;
9698;SDS011;10089;47.876;8.346;2024-03-02T07:45:45;118.80;;;16.85;;
9698;SDS011;10089;47.876;8.346;2024-03-02T07:48:11;44.08;;;15.07;;
9698;SDS011;10089;47.876;8.346;2024-03-02T07:50:37;52.90;;;16.67;;
9698;SDS011;10089;47.876;8.346;2024-03-02T07:53:04;42.28;;;15.18;;
9698;SDS011;10089;47.876;8.346;2024-03-02T07:55:30;34.45;;;15.80;;
9698;SDS011;10089;47.876;8.346;2024-03-02T07:57:59;60.45;;;17.15;;
9698;SDS011;10089;47.876;8.346;2024-03-02T08:00:25;48.92;;;16.50;;
9698;SDS011;10089;47.876;8.346;2024-03-02T08:02:52;37.05;;;16.50;;
9698;SDS011;10089;47.876;8.346;2024-03-02T08:05:18;32.00;;;14.57;;
9698;SDS011;10089;47.876;8.346;2024-03-02T08:07:45;67.93;;;14.93;;
9698;SDS011;10089;47.876;8.346;2024-03-02T08:10:11;61.00;;;15.05;;
9698;SDS011;10089;47.876;8.346;2024-03-02T08:12:37;36.55;;;14.60;;
9698;SDS011;10089;47.876;8.346;2024-03-02T08:15:03;33.92;;;13.50;;
9698;SDS011;10089;47.876;8.346;2024-03-02T08:17:29;26.00;;;13.00;;
9698;SDS011;10089;47.876;8.346;2024-03-02T08:19:55;36.25;;;14.57;;
9698;SDS011;10089;47.876;8.346;2024-03-02T08:22:21;26.48;;;13.73;;
9698;SDS011;10089;47.876;8.346;2024-03-02T08:24:47;36.03;;;15.20;;
9698;SDS011;10089;47.876;8.346;2024-03-02T08:27:13;30.98;;;14.80;;
9698;SDS011;10089;47.876;8.346;2024-03-02T08:29:40;26.40;;;14.30;;
9698;SDS011;10089;47.876;8.346;2024-03-02T08:32:06;27.65;;;13.73;;
9698;SDS011;10089;47.876;8.346;2024-03-02T08:34:35;24.42;;;12.38;;
9698;SDS011;10089;47.876;8.346;2024-03-02T08:37:01;28.73;;;13.52;;
9698;SDS011;10089;47.876;8.346;2024-03-02T08:39:27;27.42;;;13.93;;
9698;SDS011;10089;47.876;8.346;2024-03-02T08:41:53;26.50;;;14.23;;
9698;SDS011;10089;47.876;8.346;2024-03-02T08:44:19;29.75;;;15.50;;
9698;SDS011;10089;47.876;8.346;2024-03-02T08:46:45;26.50;;;13.77;;
9698;SDS011;10089;47.876;8.346;2024-03-02T08:49:11;24.67;;;13.93;;
9698;SDS011;10089;47.876;8.346;2024-03-02T08:51:39;26.60;;;13.82;;
9698;SDS011;10089;47.876;8.346;2024-03-02T08:54:05;24.25;;;12.25;;
9698;SDS011;10089;47.876;8.346;2024-03-02T08:56:31;27.45;;;12.85;;
9698;SDS011;10089;47.876;8.346;2024-03-02T08:58:56;22.58;;;13.80;;
9698;SDS011;10089;47.876;8.346;2024-03-02T09:01:22;25.15;;;11.70;;
9698;SDS011;10089;47.876;8.346;2024-03-02T09:03:48;29.85;;;16.73;;
9698;SDS011;10089;47.876;8.346;2024-03-02T09:06:14;20.85;;;12.55;;
9698;SDS011;10089;47.876;8.346;2024-03-02T09:08:45;24.20;;;13.90;;
9698;SDS011;10089;47.876;8.346;2024-03-02T09:11:11;32.90;;;18.27;;
9698;SDS011;10089;47.876;8.346;2024-03-02T09:13:37;21.77;;;13.15;;
9698;SDS011;10089;47.876;8.346;2024-03-02T09:16:03;22.92;;;13.55;;
9698;SDS011;10089;47.876;8.346;2024-03-02T09:18:30;29.55;;;15.63;;
9698;SDS011;10089;47.876;8.346;2024-03-02T09:20:56;190.23;;;83.72;;
9698;SDS011;10089;47.876;8.346;2024-03-02T09:23:22;72.05;;;35.45;;
9698;SDS011;10089;47.876;8.346;2024-03-02T09:25:47;34.47;;;19.92;;
9698;SDS011;10089;47.876;8.346;2024-03-02T09:28:15;54.47;;;27.42;;
9698;SDS011;10089;47.876;8.346;2024-03-02T09:30:41;15.57;;;9.45;;
9698;SDS011;10089;47.876;8.346;2024-03-02T09:33:06;12.77;;;8.73;;
9698;SDS011;10089;47.876;8.346;2024-03-02T09:35:32;14.27;;;8.05;;
9698;SDS011;10089;47.876;8.346;2024-03-02T09:37:57;20.33;;;11.43;;
9698;SDS011;10089;47.876;8.346;2024-03-02T09:40:23;11.73;;;7.68;;
9698;SDS011;10089;47.876;8.346;2024-03-02T09:42:49;12.30;;;8.23;;
9698;SDS011;10089;47.876;8.346;2024-03-02T09:45:24;30.75;;;17.40;;
9698;SDS011;10089;47.876;8.346;2024-03-02T09:47:51;8.40;;;6.28;;
9698;SDS011;10089;47.876;8.346;2024-03-02T09:50:17;10.30;;;7.05;;
9698;SDS011;10089;47.876;8.346;2024-03-02T09:52:43;7.18;;;5.15;;
9698;SDS011;10089;47.876;8.346;2024-03-02T09:55:13;8.80;;;6.15;;
9698;SDS011;10089;47.876;8.346;2024-03-02T09:57:40;10.75;;;7.65;;
9698;SDS011;10089;47.876;8.346;2024-03-02T10:00:07;7.55;;;5.25;;
9698;SDS011;10089;47.876;8.346;2024-03-02T10:02:33;8.80;;;5.22;;
9698;SDS011;10089;47.876;8.346;2024-03-02T10:04:59;7.38;;;5.53;;
9698;SDS011;10089;47.876;8.346;2024-03-02T10:07:25;7.95;;;5.80;;
9698;SDS011;10089;47.876;8.346;2024-03-02T10:09:51;7.43;;;5.50;;
9698;SDS011;10089;47.876;8.346;2024-03-02T10:12:17;7.38;;;4.95;;
9698;SDS011;10089;47.876;8.346;2024-03-02T10:14:44;7.72;;;5.22;;
9698;SDS011;10089;47.876;8.346;2024-03-02T10:17:11;7.93;;;5.30;;
9698;SDS011;10089;47.876;8.346;2024-03-02T10:19:38;7.05;;;4.85;;
9698;SDS011;10089;47.876;8.346;2024-03-02T10:22:04;10.13;;;5.32;;
9698;SDS011;10089;47.876;8.346;2024-03-02T10:24:50;5.97;;;4.50;;
9698;SDS011;10089;47.876;8.346;2024-03-02T10:27:16;7.78;;;4.88;;
9698;SDS011;10089;47.876;8.346;2024-03-02T10:29:45;5.57;;;4.22;;
9698;SDS011;10089;47.876;8.346;2024-03-02T10:32:12;6.45;;;4.57;;
9698;SDS011;10089;47.876;8.346;2024-03-02T10:34:39;8.68;;;4.78;;
9698;SDS011;10089;47.876;8.346;2024-03-02T10:37:06;5.32;;;3.95;;
9698;SDS011;10089;47.876;8.346;2024-03-02T10:39:34;21.20;;;13.68;;
9698;SDS011;10089;47.876;8.346;2024-03-02T10:42:05;27.38;;;16.73;;
9698;SDS011;10089;47.876;8.346;2024-03-02T10:44:31;6.20;;;4.43;;
9698;SDS011;10089;47.876;8.346;2024-03-02T10:47:00;7.30;;;4.20;;
9698;SDS011;10089;47.876;8.346;2024-03-02T10:49:27;10.57;;;8.20;;
9698;SDS011;10089;47.876;8.346;2024-03-02T10:51:54;5.20;;;3.45;;
9698;SDS011;10089;47.876;8.346;2024-03-02T10:54:20;4.93;;;3.45;;
9698;SDS011;10089;47.876;8.346;2024-03-02T10:56:51;5.22;;;4.15;;
9698;SDS011;10089;47.876;8.346;2024-03-02T10:59:24;7.13;;;4.70;;
9698;SDS011;10089;47.876;8.346;2024-03-02T11:01:56;4.80;;;3.13;;
9698;SDS011;10089;47.876;8.346;2024-03-02T11:04:24;10.10;;;6.43;;
9698;SDS011;10089;47.876;8.346;2024-03-02T11:06:51;15.20;;;9.20;;
9698;SDS011;10089;47.876;8.346;2024-03-02T11:09:20;7.05;;;5.05;;
9698;SDS011;10089;47.876;8.346;2024-03-02T11:14:48;10.57;;;6.55;;
9698;SDS011;10089;47.876;8.346;2024-03-02T11:17:17;8.00;;;5.18;;
9698;SDS011;10089;47.876;8.346;2024-03-02T11:19:43;6.30;;;2.72;;
9698;SDS011;10089;47.876;8.346;2024-03-02T11:22:11;2.47;;;2.08;;
9698;SDS011;10089;47.876;8.346;2024-03-02T11:24:38;8.55;;;5.82;;
9698;SDS011;10089;47.876;8.346;2024-03-02T11:27:04;9.20;;;5.35;;
9698;SDS011;10089;47.876;8.346;2024-03-02T11:32:17;7.45;;;3.92;;
9698;SDS011;10089;47.876;8.346;2024-03-02T11:34:49;18.17;;;10.00;;
9698;SDS011;10089;47.876;8.346;2024-03-02T11:37:16;18.67;;;10.70;;
9698;SDS011;10089;47.876;8.346;2024-03-02T11:39:46;5.60;;;3.45;;
9698;SDS011;10089;47.876;8.346;2024-03-02T11:42:14;41.22;;;18.10;;
9698;SDS011;10089;47.876;8.346;2024-03-02T11:44:47;3.63;;;2.60;;
9698;SDS011;10089;47.876;8.346;2024-03-02T11:47:16;8.07;;;5.38;;
9698;SDS011;10089;47.876;8.346;2024-03-02T11:49:45;9.48;;;4.30;;
9698;SDS011;10089;47.876;8.346;2024-03-02T11:52:16;6.38;;;4.60;;
9698;SDS011;10089;47.876;8.346;2024-03-02T11:54:46;11.60;;;7.32;;
9698;SDS011;10089;47.876;8.346;2024-03-02T11:57:14;3.70;;;3.28;;
9698;SDS011;10089;47.876;8.346;2024-03-02T11:59:41;5.45;;;3.53;;
9698;SDS011;10089;47.876;8.346;2024-03-02T12:02:12;13.85;;;9.00;;
9698;SDS011;10089;47.876;8.346;2024-03-02T12:04:40;5.15;;;3.53;;
9698;SDS011;10089;47.876;8.346;2024-03-02T12:07:07;6.57;;;5.05;;
9698;SDS011;10089;47.876;8.346;2024-03-02T12:09:34;5.18;;;3.85;;
9698;SDS011;10089;47.876;8.346;2024-03-02T12:12:03;16.05;;;10.68;;
9698;SDS011;10089;47.876;8.346;2024-03-02T12:14:34;7.10;;;4.53;;
9698;SDS011;10089;47.876;8.346;2024-03-02T12:17:01;25.13;;;13.73;;
9698;SDS011;10089;47.876;8.346;2024-03-02T12:19:27;25.40;;;13.20;;
9698;SDS011;10089;47.876;8.346;2024-03-02T12:21:55;27.30;;;14.57;;
9698;SDS011;10089;47.876;8.346;2024-03-02T12:24:22;26.20;;;14.13;;
9698;SDS011;10089;47.876;8.346;2024-03-02T12:26:51;121.55;;;53.90;;
9698;SDS011;10089;47.876;8.346;2024-03-02T12:29:20;29.65;;;14.88;;
9698;SDS011;10089;47.876;8.346;2024-03-02T12:31:50;41.33;;;21.27;;
9698;SDS011;10089;47.876;8.346;2024-03-02T12:34:20;8.25;;;3.28;;
9698;SDS011;10089;47.876;8.346;2024-03-02T12:36:55;66.57;;;29.58;;
9698;SDS011;10089;47.876;8.346;2024-03-02T12:44:25;64.63;;;30.83;;
9698;SDS011;10089;47.876;8.346;2024-03-02T12:46:51;49.50;;;25.00;;
9698;SDS011;10089;47.876;8.346;2024-03-02T12:49:21;24.13;;;11.48;;
9698;SDS011;10089;47.876;8.346;2024-03-02T12:51:47;3.50;;;2.80;;
9698;SDS011;10089;47.876;8.346;2024-03-02T12:54:17;40.03;;;21.83;;
9698;SDS011;10089;47.876;8.346;2024-03-02T12:56:43;15.50;;;9.35;;
9698;SDS011;10089;47.876;8.346;2024-03-02T12:59:18;5.25;;;3.75;;
9698;SDS011;10089;47.876;8.346;2024-03-02T13:01:52;5.38;;;3.25;;
9698;SDS011;10089;47.876;8.346;2024-03-02T13:04:25;3.45;;;2.38;;
9698;SDS011;10089;47.876;8.346;2024-03-02T13:06:51;62.03;;;28.27;;
9698;SDS011;10089;47.876;8.346;2024-03-02T13:09:37;2.58;;;2.38;;
9698;SDS011;10089;47.876;8.346;2024-03-02T13:12:02;5.95;;;3.28;;
9698;SDS011;10089;47.876;8.346;2024-03-02T13:14:31;18.83;;;6.60;;
9698;SDS011;10089;47.876;8.346;2024-03-02T13:17:01;14.57;;;6.57;;
9698;SDS011;10089;47.876;8.346;2024-03-02T13:19:29;34.35;;;15.07;;
9698;SDS011;10089;47.876;8.346;2024-03-02T13:21:56;6.15;;;3.45;;
9698;SDS011;10089;47.876;8.346;2024-03-02T13:24:26;13.43;;;6.88;;
9698;SDS011;10089;47.876;8.346;2024-03-02T13:26:54;6.25;;;4.22;;
9698;SDS011;10089;47.876;8.346;2024-03-02T13:29:22;3.85;;;3.13;;
9698;SDS011;10089;47.876;8.346;2024-03-02T13:31:48;2.85;;;2.33;;
9698;SDS011;10089;47.876;8.346;2024-03-02T13:34:13;3.47;;;2.45;;
9698;SDS011;10089;47.876;8.346;2024-03-02T13:36:39;2.42;;;2.00;;
9698;SDS011;10089;47.876;8.346;2024-03-02T13:39:05;4.60;;;3.42;;
9698;SDS011;10089;47.876;8.346;2024-03-02T13:41:34;2.35;;;1.85;;
9698;SDS011;10089;47.876;8.346;2024-03-02T13:44:00;2.75;;;2.20;;
9698;SDS011;10089;47.876;8.346;2024-03-02T13:46:26;2.17;;;1.88;;
9698;SDS011;10089;47.876;8.346;2024-03-02T13:48:52;2.40;;;1.90;;
9698;SDS011;10089;47.876;8.346;2024-03-02T13:51:19;3.72;;;2.30;;
9698;SDS011;10089;47.876;8.346;2024-03-02T13:53:45;4.75;;;2.45;;
9698;SDS011;10089;47.876;8.346;2024-03-02T13:56:11;2.47;;;1.80;;
9698;SDS011;10089;47.876;8.346;2024-03-02T13:58:37;5.07;;;2.00;;
9698;SDS011;10089;47.876;8.346;2024-03-02T14:01:16;2.25;;;1.70;;
9698;SDS011;10089;47.876;8.346;2024-03-02T14:03:42;4.00;;;1.60;;
9698;SDS011;10089;47.876;8.346;2024-03-02T14:06:07;5.28;;;2.00;;
9698;SDS011;10089;47.876;8.346;2024-03-02T14:08:33;1.85;;;1.65;;
9698;SDS011;10089;47.876;8.346;2024-03-02T14:11:01;5.35;;;2.47;;
9698;SDS011;10089;47.876;8.346;2024-03-02T14:13:27;2.83;;;2.05;;
9698;SDS011;10089;47.876;8.346;2024-03-02T14:15:53;3.53;;;2.03;;
9698;SDS011;10089;47.876;8.346;2024-03-02T14:18:19;2.08;;;1.88;;
9698;SDS011;10089;47.876;8.346;2024-03-02T14:20:46;2.83;;;1.90;;
9698;SDS011;10089;47.876;8.346;2024-03-02T14:23:17;4.38;;;2.50;;
9698;SDS011;10089;47.876;8.346;2024-03-02T14:25:45;5.32;;;3.45;;
9698;SDS011;10089;47.876;8.346;2024-03-02T14:28:10;5.15;;;2.90;;
9698;SDS011;10089;47.876;8.346;2024-03-02T14:30:37;5.78;;;2.50;;
9698;SDS011;10089;47.876;8.346;2024-03-02T14:33:02;4.60;;;3.58;;
9698;SDS011;10089;47.876;8.346;2024-03-02T14:35:28;8.60;;;5.65;;
9698;SDS011;10089;47.876;8.346;2024-03-02T14:37:54;3.65;;;2.50;;
9698;SDS011;10089;47.876;8.346;2024-03-02T14:40:22;5.70;;;4.43;;
9698;SDS011;10089;47.876;8.346;2024-03-02T14:42:51;3.63;;;2.80;;
9698;SDS011;10089;47.876;8.346;2024-03-02T14:45:17;6.50;;;3.80;;
9698;SDS011;10089;47.876;8.346;2024-03-02T14:47:43;3.40;;;2.40;;
9698;SDS011;10089;47.876;8.346;2024-03-02T14:50:08;10.45;;;6.28;;
9698;SDS011;10089;47.876;8.346;2024-03-02T14:52:35;5.15;;;2.72;;
9698;SDS011;10089;47.876;8.346;2024-03-02T14:55:00;6.82;;;4.03;;
9698;SDS011;10089;47.876;8.346;2024-03-02T14:57:27;5.07;;;3.20;;